Time;durP1;ratioP1;P1;durP2;ratioP2;P2;SDS_P1;SDS_P2;PMS_P1;PMS_P2;Temp;Humidity;BMP_temperature;BMP_pressure;BME280_temperature;BME280_humidity;BME280_pressure;Samples;Min_cycle;Max_cycle;Signal;HPM_P1;HPM_P2
2023/05/16 00:00:53;;;;;;;4.43;2.40;;;13.60;99.90;;;13.62;100.00;100983.13;5217007;28;20056;-69
2023/05/16 00:03:25;;;;;;;5.00;2.20;;;13.60;99.90;;;13.62;100.00;100978.78;5213851;28;20045;-68
2023/05/16 00:06:01;;;;;;;4.88;2.15;;;13.60;99.90;;;13.62;100.00;100976.16;5216334;28;20506;-70
2023/05/16 00:08:33;;;;;;;4.63;2.42;;;13.60;99.90;;;13.59;100.00;100978.72;5220655;28;20143;-70
2023/05/16 00:11:05;;;;;;;5.18;2.67;;;13.50;99.90;;;13.56;100.00;100978.63;5219646;28;20041;-70
2023/05/16 00:13:37;;;;;;;3.42;1.83;;;13.50;99.90;;;13.53;100.00;100975.94;5220237;28;20378;-69
2023/05/16 00:16:10;;;;;;;6.05;2.28;;;13.50;99.90;;;13.47;100.00;100979.28;5207217;28;20096;-70
2023/05/16 00:18:44;;;;;;;4.72;1.98;;;13.50;99.90;;;13.41;100.00;100975.63;5205329;28;20123;-69
2023/05/16 00:21:17;;;;;;;6.80;2.00;;;13.40;99.90;;;13.34;100.00;100976.31;5197618;28;20047;-70
2023/05/16 00:23:50;;;;;;;5.35;2.03;;;13.30;99.90;;;13.26;100.00;100982.22;5206274;28;20041;-69
2023/05/16 00:26:22;;;;;;;4.38;2.33;;;13.30;99.90;;;13.20;100.00;100979.44;5206702;28;20041;-68
2023/05/16 00:28:54;;;;;;;3.60;2.10;;;13.20;99.90;;;13.16;100.00;100981.91;5205904;28;20114;-69
2023/05/16 00:31:26;;;;;;;4.20;1.83;;;13.20;99.90;;;13.12;100.00;100978.31;5205902;28;20045;-70
2023/05/16 00:33:58;;;;;;;4.07;1.95;;;13.20;99.90;;;13.09;100.00;100980.84;5205853;28;20037;-68
2023/05/16 00:36:34;;;;;;;2.97;1.77;;;13.10;99.90;;;13.07;100.00;100977.31;5205847;28;20055;-70
2023/05/16 00:39:06;;;;;;;2.47;1.55;;;13.10;99.90;;;13.06;100.00;100972.91;5205816;28;20534;-69
2023/05/16 00:41:39;;;;;;;2.92;1.65;;;13.10;99.90;;;13.08;100.00;100979.06;5204102;28;20192;-68
2023/05/16 00:44:12;;;;;;;3.58;1.60;;;13.10;99.90;;;13.07;100.00;100972.06;5195980;28;20061;-69
2023/05/16 00:46:45;;;;;;;3.65;1.98;;;13.10;99.90;;;13.04;100.00;100962.41;5188736;28;20056;-67
2023/05/16 00:49:18;;;;;;;5.13;2.03;;;13.10;99.90;;;13.02;100.00;100969.31;5220585;28;20506;-68
2023/05/16 00:51:52;;;;;;;3.17;1.83;;;13.00;99.90;;;13.02;100.00;100968.44;5203761;28;20053;-69
2023/05/16 00:54:28;;;;;;;3.42;1.83;;;13.00;99.90;;;13.03;100.00;100972.81;5192258;28;20526;-69
2023/05/16 00:57:02;;;;;;;4.15;2.40;;;13.00;99.90;;;13.03;100.00;100962.34;5201477;28;20464;-69
2023/05/16 00:59:35;;;;;;;7.05;2.53;;;13.00;99.90;;;13.01;100.00;100964.06;5205454;28;20055;-69
2023/05/16 01:02:07;;;;;;;3.33;2.03;;;12.90;99.90;;;12.96;100.00;100963.03;5202850;28;20041;-69
2023/05/16 01:04:41;;;;;;;4.38;2.22;;;12.90;99.90;;;12.96;100.00;100968.25;5204293;28;20053;-69
2023/05/16 01:07:17;;;;;;;4.20;2.38;;;12.90;99.90;;;12.92;100.00;100966.44;5204223;28;20044;-68
2023/05/16 01:09:49;;;;;;;2.95;1.90;;;12.90;99.90;;;12.90;100.00;100968.09;5199905;28;20057;-69
2023/05/16 01:12:30;;;;;;;5.78;2.83;;;12.90;99.90;;;12.92;100.00;100967.31;5204751;28;20041;-69
2023/05/16 01:15:08;;;;;;;5.93;2.92;;;12.90;99.90;;;12.92;100.00;100967.31;5195597;28;20115;-69
2023/05/16 01:17:57;;;;;;;4.95;3.05;;;12.90;99.90;;;12.88;100.00;100964.56;5205260;28;20049;-69
2023/05/16 01:20:38;;;;;;;6.55;3.53;;;12.80;99.90;;;12.85;100.00;100967.09;5196564;28;20049;-70
2023/05/16 01:23:28;;;;;;;6.15;3.25;;;12.80;99.90;;;12.82;100.00;100974.84;5204427;28;20522;-70
2023/05/16 01:26:18;;;;;;;6.68;3.63;;;12.80;99.90;;;12.82;100.00;100972.22;5204405;28;20044;-69
2023/05/16 01:28:52;;;;;;;8.63;4.00;;;12.80;99.90;;;12.82;100.00;100967.88;5203900;28;20144;-68
2023/05/16 01:31:24;;;;;;;7.88;4.50;;;12.80;99.90;;;12.78;100.00;100966.03;5191559;28;20042;-69
2023/05/16 01:33:57;;;;;;;7.45;4.30;;;12.80;99.90;;;12.73;100.00;100973.75;5201652;28;20434;-69
2023/05/16 01:36:38;;;;;;;9.40;4.57;;;12.80;99.90;;;12.73;100.00;100972.84;5204735;28;20041;-69
2023/05/16 01:39:15;;;;;;;;;;;12.70;99.90;;;12.67;100.00;100978.78;5203528;28;20050;-69
2023/05/16 01:41:57;;;;;;;6.90;3.60;;;12.70;99.90;;;12.62;100.00;100982.13;5204524;28;19947;-68
2023/05/16 01:44:35;;;;;;;7.65;3.13;;;12.70;99.90;;;12.55;100.00;100988.00;5195316;28;20048;-69
2023/05/16 01:47:13;;;;;;;6.53;3.10;;;12.60;99.90;;;12.52;100.00;100982.66;5204844;28;20083;-67
2023/05/16 01:49:56;;;;;;;5.25;2.63;;;12.60;99.90;;;12.49;100.00;100993.94;5195107;28;20433;-69
2023/05/16 01:52:35;;;;;;;5.63;2.53;;;12.60;99.90;;;12.47;100.00;100993.00;5195228;28;20072;-69
2023/05/16 01:55:15;;;;;;;4.82;2.47;;;12.50;99.90;;;12.42;100.00;101000.72;5203885;28;20509;-68
2023/05/16 01:57:50;;;;;;;4.05;2.22;;;12.50;99.90;;;12.37;100.00;101004.00;5204209;28;20044;-69
2023/05/16 02:00:23;;;;;;;5.53;2.50;;;12.40;99.90;;;12.33;100.00;101005.66;5210591;28;20099;-68
2023/05/16 02:02:55;;;;;;;5.38;2.80;;;12.40;99.90;;;12.35;100.00;101010.94;5203665;28;20103;-68
2023/05/16 02:05:28;;;;;;;10.07;3.88;;;12.40;99.90;;;12.31;100.00;101009.94;5194820;28;20409;-70
2023/05/16 02:08:02;;;;;;;7.85;3.72;;;12.40;99.90;;;12.28;100.00;101006.34;5204108;28;20556;-68
2023/05/16 02:10:34;;;;;;;7.97;3.90;;;12.30;99.90;;;12.29;100.00;101013.34;5203924;28;20056;-69
2023/05/16 02:13:07;;;;;;;8.30;4.22;;;12.30;99.90;;;12.23;100.00;101012.31;5203454;28;20050;-69
2023/05/16 02:15:41;;;;;;;9.82;4.63;;;12.30;99.90;;;12.18;100.00;101016.50;5204052;28;20069;-69
2023/05/16 02:18:15;;;;;;;9.77;4.35;;;12.30;99.90;;;12.17;100.00;101019.97;5202340;28;20057;-68
2023/05/16 02:20:48;;;;;;;8.52;3.97;;;12.30;99.90;;;12.16;100.00;101020.81;5203678;28;20126;-70
2023/05/16 02:23:21;;;;;;;8.63;4.38;;;12.20;99.90;;;12.18;100.00;101028.69;5201949;28;20525;-69
2023/05/16 02:25:53;;;;;;;12.75;4.82;;;12.20;99.90;;;12.17;100.00;101029.53;5203638;28;20044;-69
2023/05/16 02:28:29;;;;;;;12.30;5.97;;;12.20;99.90;;;12.17;100.00;101026.91;5194814;28;20128;-69
2023/05/16 02:31:02;;;;;;;11.43;4.97;;;12.20;99.90;;;12.15;100.00;101033.84;5203015;28;20091;-68
2023/05/16 02:33:34;;;;;;;9.52;4.78;;;12.20;99.90;;;12.12;100.00;101038.94;5203712;28;20042;-69
2023/05/16 02:36:08;;;;;;;9.07;4.68;;;12.20;99.90;;;12.08;100.00;101040.59;5203588;28;20041;-69
2023/05/16 02:38:40;;;;;;;6.50;3.50;;;12.20;99.90;;;12.04;100.00;101049.16;5203754;28;20597;-69
2023/05/16 02:41:13;;;;;;;10.18;4.28;;;12.10;99.90;;;12.00;100.00;101055.13;5202956;28;20052;-69
2023/05/16 02:43:46;;;;;;;7.07;3.53;;;12.10;99.90;;;11.97;100.00;101051.50;5195067;28;20050;-69
2023/05/16 02:46:24;;;;;;;6.20;3.10;;;12.00;99.90;;;11.87;100.00;101060.78;5202380;28;20041;-69
2023/05/16 02:48:57;;;;;;;5.82;3.30;;;12.00;99.90;;;11.84;100.00;101063.28;5193793;28;20054;-69
2023/05/16 02:51:30;;;;;;;6.82;3.25;;;11.90;99.90;;;11.78;100.00;101060.41;5202756;28;20128;-69
2023/05/16 02:54:02;;;;;;;8.85;3.65;;;11.90;99.90;;;11.75;100.00;101073.38;5202129;28;20099;-69
2023/05/16 02:56:36;;;;;;;6.82;3.28;;;11.80;99.90;;;11.72;100.00;101075.88;5203382;28;20044;-69
2023/05/16 02:59:09;;;;;;;5.13;2.35;;;11.80;99.90;;;11.67;100.00;101081.84;5203201;28;20259;-68
2023/05/16 03:01:42;;;;;;;5.32;2.45;;;11.70;99.90;;;11.57;100.00;101076.25;5202873;28;20069;-68
2023/05/16 03:04:14;;;;;;;5.80;2.88;;;11.70;99.90;;;11.52;100.00;101088.22;5185463;28;20053;-68
2023/05/16 03:06:46;;;;;;;4.95;2.20;;;11.60;99.90;;;11.50;100.00;101089.91;5187231;28;20583;-69
2023/05/16 03:09:18;;;;;;;6.78;2.85;;;11.60;99.90;;;11.43;100.00;101088.81;5199895;28;20042;-69
2023/05/16 03:11:51;;;;;;;6.05;2.65;;;11.60;99.90;;;11.41;100.00;101095.69;5203049;28;20041;-68
2023/05/16 03:14:27;;;;;;;5.40;2.45;;;11.50;99.90;;;11.38;100.00;101098.19;5210306;28;20132;-69
2023/05/16 03:17:00;;;;;;;9.18;2.70;;;11.50;99.90;;;11.28;100.00;101106.50;5201757;28;20414;-70
2023/05/16 03:19:32;;;;;;;7.78;2.63;;;11.50;99.90;;;11.22;100.00;101115.03;5202056;28;20049;-69
2023/05/16 03:22:05;;;;;;;6.80;2.47;;;11.40;99.90;;;11.14;100.00;101111.22;5200988;28;20061;-69
2023/05/16 03:24:39;;;;;;;7.20;2.63;;;11.30;99.90;;;11.09;100.00;101108.44;5203024;28;20071;-68
2023/05/16 03:27:11;;;;;;;4.90;2.10;;;11.20;99.90;;;11.07;100.00;101109.19;5202985;28;20124;-69
2023/05/16 03:29:45;;;;;;;6.50;2.38;;;11.20;99.90;;;11.06;100.00;101113.53;5202918;28;20108;-69
2023/05/16 03:32:18;;;;;;;10.63;3.15;;;11.20;99.90;;;11.07;100.00;101123.13;5202225;28;20403;-69
2023/05/16 03:34:50;;;;;;;9.38;3.10;;;11.20;99.90;;;11.08;100.00;101121.41;5193523;28;20049;-70
2023/05/16 03:37:23;;;;;;;6.68;3.17;;;11.20;99.90;;;11.14;100.00;101125.13;5202834;28;20113;-69
2023/05/16 03:39:55;;;;;;;5.30;2.33;;;11.20;99.90;;;11.14;100.00;101125.13;5193897;28;20053;-68
2023/05/16 03:42:27;;;;;;;7.53;2.72;;;11.20;99.90;;;11.13;100.00;101128.59;5192800;28;20045;-69
2023/05/16 03:45:00;;;;;;;6.72;2.40;;;11.20;99.90;;;11.08;100.00;101140.59;5202869;28;20037;-69
2023/05/16 03:47:32;;;;;;;4.85;2.30;;;11.10;99.90;;;11.09;100.00;101144.97;5203521;28;20033;-69
2023/05/16 03:50:07;;;;;;;4.60;2.42;;;11.20;99.90;;;11.08;100.00;101137.97;5203927;28;20049;-69
2023/05/16 03:52:39;;;;;;;4.22;2.67;;;11.10;99.90;;;11.10;100.00;101143.25;5206337;28;20052;-69
2023/05/16 03:55:13;;;;;;;5.65;2.40;;;11.20;99.90;;;11.13;100.00;101143.34;5206333;28;20041;-69
2023/05/16 03:57:48;;;;;;;8.35;3.33;;;11.20;99.90;;;11.18;100.00;101153.97;5205401;28;20414;-70
2023/05/16 04:00:22;;;;;;;;;;;11.20;99.90;;;11.23;100.00;101158.53;5205806;28;20045;-68
2023/05/16 04:02:54;;;;;;;6.05;2.47;;;11.20;99.90;;;11.24;100.00;101154.22;5206667;28;19925;-68
2023/05/16 04:05:26;;;;;;;5.05;2.13;;;11.20;99.90;;;11.23;100.00;101162.88;5206677;28;20033;-69
2023/05/16 04:07:58;;;;;;;8.60;2.90;;;11.20;99.90;;;11.25;100.00;101161.19;5206747;28;20041;-69
2023/05/16 04:10:30;;;;;;;10.40;2.88;;;11.30;99.90;;;11.22;100.00;101163.72;5206648;28;20043;-70
2023/05/16 04:13:02;;;;;;;4.80;2.45;;;11.20;99.90;;;11.23;100.00;101163.75;5205971;28;20398;-69
2023/05/16 04:15:36;;;;;;;11.07;3.17;;;11.20;99.90;;;11.22;100.00;101164.59;5206874;28;20042;-69
2023/05/16 04:18:09;;;;;;;4.30;2.47;;;11.20;99.90;;;11.19;100.00;101172.28;5205150;28;20060;-68
2023/05/16 04:20:42;;;;;;;8.13;3.03;;;11.20;99.90;;;11.16;100.00;101168.69;5198548;28;20133;-68
2023/05/16 04:23:14;;;;;;;9.23;2.55;;;11.20;99.90;;;11.13;100.00;101175.56;5206482;28;20056;-69
2023/05/16 04:25:48;;;;;;;10.88;2.63;;;11.20;99.90;;;11.11;100.00;101179.84;5206640;28;20201;-70
2023/05/16 04:28:21;;;;;;;7.47;2.75;;;11.20;99.90;;;11.06;100.00;101175.25;5206116;28;20565;-68
2023/05/16 04:30:54;;;;;;;8.75;2.38;;;11.10;99.90;;;11.00;100.00;101178.53;5198702;28;20088;-68
2023/05/16 04:33:27;;;;;;;8.48;3.17;;;11.10;99.90;;;10.98;100.00;101181.91;5205625;28;20049;-68
2023/05/16 04:35:59;;;;;;;5.65;2.95;;;11.10;99.90;;;10.97;100.00;101188.84;5206227;28;20459;-69
2023/05/16 04:38:31;;;;;;;7.15;2.58;;;11.00;99.90;;;10.98;100.00;101192.34;5205083;28;20061;-68
2023/05/16 04:41:04;;;;;;;12.38;3.05;;;11.00;99.90;;;10.94;100.00;101200.88;5205136;28;20045;-69
2023/05/16 04:43:37;;;;;;;9.98;2.95;;;11.00;99.90;;;10.91;100.00;101198.16;5206224;28;20142;-70
2023/05/16 04:46:10;;;;;;;10.82;2.88;;;11.00;99.90;;;10.91;100.00;101201.63;5205903;28;20359;-69
2023/05/16 04:48:43;;;;;;;8.23;2.90;;;11.00;99.90;;;10.91;100.00;101201.63;5205889;28;20047;-69
2023/05/16 04:51:15;;;;;;;8.45;2.72;;;11.00;99.90;;;10.90;100.00;101210.31;5204577;28;20041;-69
2023/05/16 04:53:47;;;;;;;8.55;2.67;;;11.00;99.90;;;10.87;100.00;101212.78;5206087;28;20057;-69
2023/05/16 04:56:20;;;;;;;9.00;2.78;;;10.90;99.90;;;10.86;100.00;101206.66;5205717;28;20494;-69
2023/05/16 04:58:52;;;;;;;10.63;2.83;;;10.90;99.90;;;10.80;100.00;101221.19;5205856;28;20041;-68
2023/05/16 05:01:25;;;;;;;6.28;2.60;;;10.90;99.90;;;10.80;100.00;101224.66;5205208;28;20045;-68
2023/05/16 05:03:57;;;;;;;7.75;2.63;;;10.90;99.90;;;10.78;100.00;101228.94;5205166;28;20041;-69
2023/05/16 05:06:30;;;;;;;7.88;2.40;;;10.90;99.90;;;10.80;100.00;101232.50;5201594;28;20042;-69
2023/05/16 05:09:04;;;;;;;8.73;2.90;;;10.80;99.90;;;10.73;100.00;101238.28;5200327;28;20060;-68
2023/05/16 05:11:36;;;;;;;9.95;2.47;;;10.80;99.90;;;10.70;100.00;101245.13;5203671;28;20586;-69
2023/05/16 05:14:08;;;;;;;7.57;2.33;;;10.80;99.90;;;10.65;100.00;101242.31;5205983;28;20060;-68
2023/05/16 05:16:42;;;;;;;6.72;2.60;;;10.70;99.90;;;10.62;100.00;101252.59;5205279;28;20394;-69
2023/05/16 05:19:14;;;;;;;7.40;2.33;;;10.70;99.90;;;10.67;100.00;101247.56;5205084;28;20045;-68
2023/05/16 05:21:47;;;;;;;10.15;2.80;;;10.80;99.90;;;10.65;100.00;101255.34;5204937;28;20128;-69
2023/05/16 05:24:19;;;;;;;5.93;2.58;;;10.70;99.90;;;10.65;100.00;101257.06;5205377;28;20045;-69
2023/05/16 05:26:51;;;;;;;7.60;2.22;;;10.70;99.90;;;10.63;100.00;101263.91;5205199;28;20355;-68
2023/05/16 05:29:23;;;;;;;7.53;2.67;;;10.70;99.90;;;10.63;100.00;101274.34;5205239;28;20045;-69
2023/05/16 05:31:56;;;;;;;11.35;3.13;;;10.70;99.90;;;10.57;100.00;101264.56;5204793;28;20041;-69
2023/05/16 05:34:29;;;;;;;8.38;3.05;;;10.70;99.90;;;10.52;100.00;101280.00;5205127;28;20041;-68
2023/05/16 05:37:01;;;;;;;6.53;2.33;;;10.70;99.90;;;10.53;100.00;101280.91;5205145;28;20049;-70
2023/05/16 05:39:34;;;;;;;7.50;2.47;;;10.70;99.90;;;10.64;100.00;101284.84;5203596;28;20057;-69
2023/05/16 05:42:07;;;;;;;8.25;2.88;;;10.70;99.90;;;10.75;100.00;101286.16;5196432;28;20050;-69
2023/05/16 05:44:39;;;;;;;10.80;3.13;;;10.80;99.90;;;10.79;100.00;101284.59;5196706;28;20367;-68
2023/05/16 05:47:14;;;;;;;12.60;2.85;;;10.80;99.90;;;10.78;100.00;101293.25;5204732;28;20535;-69
2023/05/16 05:49:48;;;;;;;8.10;2.88;;;10.80;99.90;;;10.76;100.00;101301.03;5204967;28;20264;-69
2023/05/16 05:52:20;;;;;;;7.13;2.55;;;10.80;99.90;;;10.80;100.00;101300.31;5204440;28;20053;-68
2023/05/16 05:54:53;;;;;;;10.13;2.65;;;10.80;99.90;;;10.88;100.00;101298.91;5203423;28;20049;-69
2023/05/16 05:57:25;;;;;;;7.43;2.50;;;10.90;99.90;;;10.98;100.00;101304.50;5196695;28;20129;-69
2023/05/16 05:59:57;;;;;;;7.93;2.63;;;11.00;99.90;;;11.06;100.00;101306.59;5204469;28;20041;-69
2023/05/16 06:02:32;;;;;;;6.10;2.22;;;11.10;99.90;;;11.31;100.00;101302.38;5203657;28;20052;-69
2023/05/16 06:05:05;;;;;;;12.48;2.80;;;11.30;99.90;;;11.52;100.00;101308.44;5204259;28;20037;-60
2023/05/16 06:07:37;;;;;;;10.02;2.20;;;11.40;99.90;;;11.77;100.00;101317.22;5204835;28;20069;-61
2023/05/16 06:10:09;;;;;;;10.13;2.53;;;11.60;99.90;;;11.93;100.00;101322.22;5203111;28;20053;-62
2023/05/16 06:12:41;;;;;;;9.85;2.35;;;11.80;99.90;;;11.92;100.00;101330.88;5203099;28;20056;-60
2023/05/16 06:15:14;;;;;;;4.07;2.38;;;11.90;99.90;;;11.81;100.00;101329.59;5194446;28;20049;-61
2023/05/16 06:17:47;;;;;;;6.82;2.35;;;11.80;99.90;;;11.82;100.00;101340.09;5204091;28;20406;-61
2023/05/16 06:20:20;;;;;;;10.95;2.67;;;11.80;99.90;;;11.96;100.00;101340.63;5204030;28;20053;-60
2023/05/16 06:22:52;;;;;;;8.73;2.75;;;11.90;99.90;;;12.10;100.00;101352.47;5203348;28;20077;-60
2023/05/16 06:25:24;;;;;;;9.25;2.38;;;12.00;99.90;;;12.42;100.00;101350.16;5203625;28;20494;-61
2023/05/16 06:27:56;;;;;;;9.13;2.42;;;12.20;99.90;;;12.75;100.00;101351.34;5204050;28;20037;-59
2023/05/16 06:30:28;;;;;;;7.28;2.65;;;12.40;99.90;;;12.93;100.00;101345.00;5203912;28;20037;-60
2023/05/16 06:33:01;;;;;;;8.38;2.13;;;12.60;99.90;;;13.13;100.00;101351.78;5203281;28;20048;-58
2023/05/16 06:35:33;;;;;;;8.43;2.17;;;12.80;99.90;;;13.25;100.00;101344.38;5203726;28;20044;-60
2023/05/16 06:38:05;;;;;;;6.13;1.92;;;13.00;99.90;;;13.37;100.00;101350.84;5203693;28;20067;-58
2023/05/16 06:40:37;;;;;;;10.90;2.20;;;13.10;99.90;;;13.46;100.00;101343.28;5195794;28;20037;-62
2023/05/16 06:43:10;;;;;;;9.18;2.15;;;13.20;99.90;;;13.60;100.00;101341.97;5203073;28;20053;-60
2023/05/16 06:45:42;;;;;;;7.88;2.13;;;13.30;99.90;;;13.73;100.00;101351.09;5203943;28;20457;-59
2023/05/16 06:48:17;;;;;;;7.85;2.20;;;13.50;99.90;;;13.83;100.00;101356.66;5201565;28;20041;-60
2023/05/16 06:50:50;;;;;;;5.30;1.90;;;13.60;99.90;;;13.95;100.00;101353.50;5203201;28;20100;-61
2023/05/16 06:53:22;;;;;;;6.55;1.98;;;13.70;99.90;;;13.96;100.00;101359.66;5203339;28;20049;-60
2023/05/16 06:55:55;;;;;;;4.80;1.67;;;13.70;99.90;;;14.09;100.00;101349.59;5203538;28;20053;-62
2023/05/16 06:58:27;;;;;;;5.60;1.73;;;13.80;99.90;;;14.56;100.00;101372.78;5197514;28;20057;-61
2023/05/16 07:00:59;;;;;;;9.40;2.95;;;14.10;99.90;;;14.88;97.90;101368.41;5197537;28;20056;-60
2023/05/16 07:03:33;;;;;;;6.20;1.70;;;14.50;99.90;;;15.19;96.73;101372.69;5202651;28;20112;-61
2023/05/16 07:06:05;;;;;;;6.90;2.00;;;14.70;99.90;;;15.47;94.89;101369.91;5203577;28;20049;-60
2023/05/16 07:08:37;;;;;;;10.88;2.28;;;15.00;99.90;;;15.75;93.75;101367.97;5201679;28;20057;-60
2023/05/16 07:11:10;;;;;;;7.40;1.60;;;15.30;99.90;;;16.00;92.96;101367.66;5202592;28;20402;-60
2023/05/16 07:13:42;;;;;;;5.45;1.70;;;15.50;99.90;;;16.27;94.15;101371.72;5203137;28;20041;-62
2023/05/16 07:16:14;;;;;;;4.72;1.75;;;15.80;99.90;;;16.58;91.58;101369.72;5202697;28;20048;-60
2023/05/16 07:18:48;;;;;;;7.63;1.75;;;16.00;99.90;;;16.74;89.30;101377.06;5202669;28;20107;-61
2023/05/16 07:21:20;;;;;;;7.03;1.55;;;16.30;99.90;;;16.70;87.21;101372.63;5202849;28;20037;-61
2023/05/16 07:23:52;;;;;;;5.00;1.88;;;16.30;99.90;;;16.40;85.90;101371.09;5203614;28;20048;-63
2023/05/16 07:26:25;;;;;;;5.38;1.63;;;16.10;99.60;;;16.13;86.84;101379.31;5206928;28;20037;-63
2023/05/16 07:28:57;;;;;;;5.15;1.50;;;15.90;99.80;;;16.05;86.83;101380.03;5206233;28;20053;-62
2023/05/16 07:31:29;;;;;;;6.03;1.30;;;15.80;99.90;;;16.11;85.56;101385.41;5206655;28;20414;-64
2023/05/16 07:34:03;;;;;;;44.92;10.55;;;15.70;99.40;;;16.21;86.00;101383.00;5205959;28;20045;-59
2023/05/16 07:36:35;;;;;;;51.28;11.98;;;15.80;99.60;;;16.28;85.73;101389.28;5222425;28;20042;-61
2023/05/16 07:39:07;;;;;;;79.50;17.88;;;15.90;99.50;;;16.43;85.89;101394.88;5206763;28;20137;-60
2023/05/16 07:41:39;;;;;;;73.22;16.75;;;16.00;99.60;;;16.75;84.80;101397.25;5205269;28;20052;-60
2023/05/16 07:44:11;;;;;;;102.60;23.45;;;16.20;99.20;;;16.91;83.94;101394.06;5206517;28;20516;-59
2023/05/16 07:46:44;;;;;;;120.07;28.80;;;16.40;98.70;;;17.15;87.46;101393.63;5199761;28;20052;-59
2023/05/16 07:49:17;;;;;;;39.75;9.43;;;16.60;99.90;;;17.12;82.45;101396.19;5215826;28;20056;-59
2023/05/16 07:51:49;;;;;;;14.15;3.45;;;16.70;97.70;;;16.85;78.74;101393.06;5215356;28;20045;-57
2023/05/16 07:54:21;;;;;;;8.68;1.35;;;16.50;95.40;;;16.89;79.16;101392.25;5206966;28;20056;-56
2023/05/16 07:56:53;;;;;;;6.00;1.23;;;16.50;95.60;;;17.13;78.90;101397.09;5205758;28;20495;-57
2023/05/16 07:59:25;;;;;;;5.55;1.30;;;16.50;95.70;;;17.42;77.55;101403.75;5206771;28;20057;-57
2023/05/16 08:01:58;;;;;;;6.47;1.42;;;16.70;95.30;;;17.72;76.80;101398.09;5206471;28;20418;-57
2023/05/16 08:04:31;;;;;;;2.75;0.75;;;16.80;94.80;;;17.97;73.51;101391.44;5205637;28;20645;-58
2023/05/16 08:07:03;;;;;;;4.45;1.02;;;17.00;92.90;;;18.20;72.34;101401.41;5206805;28;20038;-57
2023/05/16 08:09:35;;;;;;;7.15;1.30;;;17.10;92.00;;;18.59;70.79;101396.63;5206682;28;20525;-57
2023/05/16 08:12:09;;;;;;;3.92;1.00;;;17.40;90.90;;;19.13;71.29;101395.47;5206308;28;20061;-57
2023/05/16 08:14:41;;;;;;;8.38;1.70;;;17.60;91.70;;;19.60;69.25;101397.63;5198539;28;20052;-57
2023/05/16 08:17:13;;;;;;;15.38;3.55;;;17.90;90.30;;;20.30;68.04;101403.34;5205280;28;20502;-61
2023/05/16 08:19:46;;;;;;;15.82;3.90;;;18.30;89.80;;;21.59;69.04;101399.25;5206489;28;20056;-59
2023/05/16 08:22:18;;;;;;;13.02;2.55;;;19.10;91.80;;;22.64;63.32;101394.50;5205938;28;20125;-59
2023/05/16 08:24:51;;;;;;;10.65;2.38;;;19.90;86.20;;;23.37;64.78;101395.81;5206604;28;20041;-59
2023/05/16 08:27:23;;;;;;;7.40;1.95;;;20.40;88.10;;;23.22;62.48;101407.47;5206327;28;20041;-57
2023/05/16 08:29:55;;;;;;;6.97;1.98;;;20.50;82.90;;;22.38;61.32;101408.81;5206555;28;20502;-60
2023/05/16 08:32:27;;;;;;;6.55;1.10;;;20.30;78.20;;;22.00;61.98;101415.97;5205713;28;20057;-57
2023/05/16 08:35:00;;;;;;;6.35;1.23;;;20.10;78.90;;;22.76;57.94;101405.06;5206477;28;20060;-59
2023/05/16 08:37:33;;;;;;;5.78;1.30;;;20.40;74.70;;;24.32;54.51;101406.38;5205836;28;20112;-60
2023/05/16 08:40:07;;;;;;;4.85;1.50;;;21.20;71.80;;;25.40;51.48;101412.00;5206342;28;20132;-60
2023/05/16 08:42:39;;;;;;;;;;;22.20;68.50;;;25.15;50.60;101409.72;5206155;28;20120;-61
2023/05/16 08:45:13;;;;;;;4.72;0.88;;;22.40;65.60;;;25.08;50.82;101412.50;5206314;28;19925;-59
2023/05/16 08:47:50;;;;;;;2.45;0.80;;;22.50;64.80;;;25.04;50.65;101400.06;5198342;28;20048;-60
2023/05/16 08:50:24;;;;;;;6.65;1.23;;;22.60;63.90;;;25.71;49.99;101405.22;5204511;28;20064;-63
2023/05/16 08:52:57;;;;;;;7.20;2.25;;;22.90;63.30;;;26.21;48.31;101389.13;5205662;28;20119;-59
2023/05/16 08:55:29;;;;;;;17.95;7.35;;;23.30;61.70;;;25.78;48.55;101399.81;5205847;28;20045;-61
2023/05/16 08:58:02;;;;;;;10.85;4.63;;;23.20;61.10;;;24.52;49.61;101400.84;5205796;28;20081;-60
2023/05/16 09:00:35;;;;;;;6.60;2.15;;;22.60;61.00;;;22.80;52.59;101401.50;5204377;28;20132;-58
2023/05/16 09:03:07;;;;;;;6.43;1.85;;;21.60;62.50;;;21.51;55.10;101392.16;5205262;28;20045;-61
2023/05/16 09:05:41;;;;;;;5.45;1.80;;;20.60;64.30;;;20.78;57.34;101393.81;5204459;28;20053;-63
2023/05/16 09:08:13;;;;;;;5.30;1.48;;;20.00;66.60;;;20.26;57.08;101396.25;5205931;28;20498;-61
2023/05/16 09:10:45;;;;;;;3.17;1.10;;;19.50;66.30;;;20.02;58.03;101388.22;5205674;28;20052;-64
2023/05/16 09:13:17;;;;;;;4.65;1.40;;;19.20;67.10;;;20.94;57.25;101385.94;5205919;28;20056;-64
2023/05/16 09:16:15;;;;;;;3.78;1.05;;;19.50;68.00;;;22.07;53.77;101385.88;5205514;28;20117;-62
2023/05/16 09:18:56;;;;;;;2.80;0.80;;;20.20;66.40;;;22.57;53.36;101390.13;5205490;28;20055;-63
2023/05/16 09:21:32;;;;;;;2.80;0.95;;;20.60;65.40;;;23.01;53.02;101389.88;5204714;28;20041;-65
2023/05/16 09:24:06;;;;;;;3.10;0.77;;;21.20;65.10;;;22.94;51.49;101393.47;5205315;28;20056;-63
2023/05/16 09:26:39;;;;;;;1.52;0.90;;;21.40;62.70;;;22.35;51.83;101392.84;5204922;28;20034;-61
2023/05/16 09:29:11;;;;;;;4.15;0.80;;;21.30;61.80;;;21.90;53.48;101393.84;5204444;28;20132;-62
2023/05/16 09:31:43;;;;;;;2.40;0.77;;;21.10;62.80;;;21.52;54.15;101397.47;5207873;28;20106;-61
2023/05/16 09:34:16;;;;;;;3.90;0.93;;;20.90;63.10;;;21.01;53.83;101403.59;5200909;28;20053;-62
2023/05/16 09:36:54;;;;;;;3.83;1.05;;;20.50;62.40;;;20.80;54.52;101399.13;5202768;28;20045;-62
2023/05/16 09:39:28;;;;;;;1.30;0.50;;;20.30;63.10;;;20.76;54.64;101397.38;5205031;28;20045;-63
2023/05/16 09:42:00;;;;;;;5.65;0.90;;;20.20;63.20;;;20.89;55.27;101382.38;5204475;28;20530;-65
2023/05/16 09:44:32;;;;;;;2.50;0.77;;;20.30;64.00;;;20.43;55.95;101395.47;5203722;28;20515;-61
2023/05/16 09:47:05;;;;;;;1.73;0.90;;;20.00;64.10;;;20.07;57.25;101386.47;5204391;28;20038;-61
2023/05/16 09:49:37;;;;;;;2.55;0.90;;;19.70;65.20;;;20.07;57.72;101391.75;5204638;28;20061;-62
2023/05/16 09:52:11;;;;;;;5.35;0.98;;;19.60;65.90;;;20.19;55.80;101393.59;5211026;22;20096;-76
2023/05/16 09:54:43;;;;;;;3.78;0.90;;;19.70;64.30;;;19.99;55.42;101389.06;5184385;28;20404;-77
2023/05/16 09:57:19;;;;;;;2.42;0.73;;;19.60;63.40;;;19.89;57.11;101396.97;5184778;28;20508;-75
2023/05/16 09:59:51;;;;;;;3.88;0.70;;;19.50;65.40;;;19.75;57.21;101395.09;5178343;28;20104;-84
2023/05/16 10:02:23;;;;;;;5.45;1.38;;;19.40;65.60;;;19.38;57.14;101401.84;5171430;28;20056;-83
2023/05/16 10:04:55;;;;;;;1.95;0.80;;;19.10;65.10;;;18.94;58.36;101397.03;5190286;28;20045;-83
2023/05/16 10:07:31;;;;;;;2.40;0.82;;;18.70;66.00;;;18.69;62.72;101390.59;5170516;28;20046;-82
2023/05/16 10:10:07;;;;;;;3.85;0.95;;;18.50;69.90;;;18.60;62.87;101376.38;5197973;28;20049;-84
2023/05/16 10:12:41;;;;;;;3.90;0.90;;;18.30;70.40;;;18.57;62.13;101386.91;5189110;28;20132;-85
2023/05/16 10:15:14;;;;;;;2.33;1.25;;;18.30;70.10;;;18.81;61.69;101386.31;5180405;28;20053;-84
2023/05/16 10:17:51;;;;;;;3.38;1.17;;;18.30;70.00;;;18.68;60.64;101380.91;5177434;28;20046;-84
2023/05/16 10:20:25;;;;;;;4.45;1.10;;;18.30;68.80;;;18.40;60.58;101381.44;5177491;28;20050;-84
2023/05/16 10:22:59;;;;;;;3.00;1.13;;;18.20;68.70;;;17.97;62.97;101393.19;5177432;28;20045;-79
2023/05/16 10:25:37;;;;;;;2.83;1.00;;;17.80;71.40;;;17.97;64.52;101394.06;5167244;28;20542;-77
2023/05/16 10:28:09;;;;;;;3.88;1.20;;;17.80;72.40;;;18.04;64.86;101395.03;5185630;28;20143;-79
2023/05/16 10:30:43;;;;;;;3.50;0.98;;;17.80;73.20;;;18.14;63.49;101396.94;5167085;28;20427;-79
2023/05/16 10:33:18;;;;;;;5.15;0.90;;;17.80;71.80;;;18.44;63.65;101396.44;5183875;28;20041;-78